Time;durP1;ratioP1;P1;durP2;ratioP2;P2;SDS_P1;SDS_P2;PMS_P1;PMS_P2;Temp;Humidity;BMP_temperature;BMP_pressure;BME280_temperature;BME280_humidity;BME280_pressure;Samples;Min_cycle;Max_cycle;Signal;HPM_P1;HPM_P2
2023/06/06 00:01:45;;;;;;;9.45;5.93;;;17.30;78.00;;;;;;5021434;28;20022;-81
2023/06/06 00:04:11;;;;;;;9.18;5.90;;;17.30;77.80;;;;;;5014469;28;20025;-81
2023/06/06 00:06:38;;;;;;;8.75;5.38;;;17.20;77.70;;;;;;5021714;28;20098;-82
2023/06/06 00:09:04;;;;;;;8.60;5.20;;;17.30;77.80;;;;;;5032343;28;20053;-81
2023/06/06 00:11:30;;;;;;;10.50;6.03;;;17.20;77.60;;;;;;5026371;28;20627;-81
2023/06/06 00:13:56;;;;;;;7.78;4.40;;;17.20;77.60;;;;;;5023674;28;20032;-82
2023/06/06 00:16:23;;;;;;;9.45;5.07;;;17.30;77.50;;;;;;5031908;28;20021;-82
2023/06/06 00:18:50;;;;;;;8.02;5.00;;;17.20;77.50;;;;;;5032217;28;20014;-81
2023/06/06 00:21:16;;;;;;;9.43;5.75;;;17.20;77.40;;;;;;5031987;28;20014;-82
2023/06/06 00:23:45;;;;;;;10.40;6.15;;;17.20;77.50;;;;;;5031592;28;20014;-81
2023/06/06 00:26:10;;;;;;;9.10;6.05;;;17.10;77.50;;;;;;5031825;28;20438;-80
2023/06/06 00:28:36;;;;;;;8.88;5.50;;;17.10;77.60;;;;;;5033522;28;20018;-81
2023/06/06 00:31:01;;;;;;;8.80;5.78;;;17.10;77.50;;;;;;5031706;28;20052;-82
2023/06/06 00:33:27;;;;;;;9.75;5.25;;;17.10;77.50;;;;;;5031349;28;20467;-81
2023/06/06 00:35:52;;;;;;;9.32;5.13;;;17.10;77.50;;;;;;5033246;28;20047;-81
2023/06/06 00:38:18;;;;;;;9.05;5.10;;;17.10;77.40;;;;;;5033063;28;20383;-81
2023/06/06 00:40:43;;;;;;;9.35;5.38;;;17.10;77.50;;;;;;5033529;28;20017;-81
2023/06/06 00:43:09;;;;;;;8.77;5.53;;;17.10;77.40;;;;;;5033201;28;20030;-82
2023/06/06 00:45:34;;;;;;;8.63;4.93;;;17.10;77.40;;;;;;5033137;28;20471;-82
2023/06/06 00:48:00;;;;;;;8.20;5.32;;;17.10;77.50;;;;;;5021835;28;20160;-81
2023/06/06 00:50:26;;;;;;;9.93;6.07;;;17.10;77.40;;;;;;5012002;28;20049;-82
2023/06/06 00:52:53;;;;;;;9.02;5.55;;;17.10;77.40;;;;;;5017562;28;20022;-82
2023/06/06 00:55:20;;;;;;;9.32;5.00;;;17.10;77.40;;;;;;5037499;28;20081;-82
2023/06/06 00:57:47;;;;;;;8.90;5.55;;;17.10;77.40;;;;;;5037695;28;20022;-82
2023/06/06 01:00:15;;;;;;;9.15;4.72;;;17.00;77.30;;;;;;5037791;28;20101;-82
2023/06/06 01:02:43;;;;;;;8.02;4.97;;;17.00;77.40;;;;;;5025006;28;20036;-82
2023/06/06 01:05:10;;;;;;;9.30;5.82;;;17.00;77.40;;;;;;5034944;28;20068;-81
2023/06/06 01:07:38;;;;;;;12.82;5.88;;;17.00;77.30;;;;;;5035404;28;20036;-82
2023/06/06 01:10:09;;;;;;;8.00;5.13;;;17.00;77.20;;;;;;5035869;28;20498;-82
2023/06/06 01:12:49;;;;;;;8.05;4.90;;;17.00;77.30;;;;;;5041720;28;20100;-82
2023/06/06 01:15:24;;;;;;;;;;;17.00;77.30;;;;;;5042021;28;20017;-82
2023/06/06 01:17:51;;;;;;;7.85;4.70;;;17.00;77.30;;;;;;5039241;28;20378;-82
2023/06/06 01:20:16;;;;;;;9.82;5.93;;;17.00;77.30;;;;;;5039979;28;20025;-82
2023/06/06 01:22:44;;;;;;;10.13;7.13;;;17.00;77.20;;;;;;5028392;28;20049;-81
2023/06/06 01:25:12;;;;;;;9.80;6.57;;;17.00;77.10;;;;;;5037806;28;20426;-82
2023/06/06 01:27:38;;;;;;;9.88;6.22;;;17.00;77.20;;;;;;5039202;28;20060;-81
2023/06/06 01:30:05;;;;;;;8.75;5.90;;;17.10;77.20;;;;;;5040680;28;20467;-82
2023/06/06 01:32:33;;;;;;;8.82;5.68;;;17.10;77.10;;;;;;5039184;28;20033;-82
2023/06/06 01:35:13;;;;;;;9.02;5.60;;;17.10;77.20;;;;;;5038714;28;20104;-82
2023/06/06 01:37:53;;;;;;;10.27;6.17;;;17.10;77.20;;;;;;5040837;28;20025;-82
2023/06/06 01:40:21;;;;;;;9.88;6.18;;;17.20;77.10;;;;;;5038783;28;20816;-82
2023/06/06 01:42:48;;;;;;;10.30;5.93;;;17.10;77.00;;;;;;5037577;28;20053;-81
2023/06/06 01:45:18;;;;;;;9.88;6.13;;;17.10;77.00;;;;;;5041571;28;20029;-83
2023/06/06 01:47:44;;;;;;;10.27;6.57;;;17.10;76.90;;;;;;5042587;28;20108;-83
2023/06/06 01:50:11;;;;;;;9.73;6.18;;;17.10;76.90;;;;;;5034150;28;20353;-83
2023/06/06 01:52:37;;;;;;;9.75;5.80;;;17.10;76.90;;;;;;5019573;28;20018;-82
2023/06/06 01:55:04;;;;;;;10.50;6.22;;;17.10;76.80;;;;;;5038207;28;20100;-82
2023/06/06 01:57:30;;;;;;;8.52;5.32;;;17.10;76.80;;;;;;5037362;28;20018;-82
2023/06/06 01:59:55;;;;;;;11.45;6.32;;;17.10;76.60;;;;;;5040738;28;20044;-82
2023/06/06 02:02:21;;;;;;;10.40;6.65;;;17.10;76.50;;;;;;5032392;28;20068;-82
2023/06/06 02:04:48;;;;;;;10.68;6.35;;;17.10;76.70;;;;;;5026622;28;20017;-82
2023/06/06 02:07:15;;;;;;;10.63;6.82;;;17.10;76.70;;;;;;5039151;28;20144;-81
2023/06/06 02:09:41;;;;;;;11.75;7.65;;;17.00;76.70;;;;;;5038733;28;20128;-82
2023/06/06 02:12:07;;;;;;;12.05;7.18;;;17.00;76.70;;;;;;5031628;28;20024;-82
2023/06/06 02:14:33;;;;;;;11.57;6.88;;;17.00;76.80;;;;;;5020553;28;20564;-82
2023/06/06 02:16:59;;;;;;;11.05;6.60;;;17.00;76.60;;;;;;5033382;28;20044;-82
2023/06/06 02:19:25;;;;;;;8.32;5.45;;;17.00;76.60;;;;;;5039890;28;20034;-82
2023/06/06 02:21:51;;;;;;;10.23;6.47;;;17.00;76.30;;;;;;5037879;28;20048;-82
2023/06/06 02:24:17;;;;;;;9.35;6.53;;;17.00;76.40;;;;;;5039552;28;20467;-82
2023/06/06 02:26:44;;;;;;;9.65;6.07;;;17.00;76.50;;;;;;5038582;28;20032;-82
2023/06/06 02:29:09;;;;;;;12.02;6.45;;;17.00;76.40;;;;;;5037424;28;20021;-82
2023/06/06 02:31:36;;;;;;;10.10;5.63;;;17.00;76.40;;;;;;5034696;28;20029;-82
2023/06/06 02:34:02;;;;;;;8.13;5.35;;;17.00;76.40;;;;;;5024918;28;20356;-82
2023/06/06 02:36:29;;;;;;;9.65;5.97;;;17.00;76.30;;;;;;5037874;28;20081;-82
2023/06/06 02:38:55;;;;;;;9.38;5.93;;;17.00;76.40;;;;;;5038006;28;20108;-81
2023/06/06 02:41:21;;;;;;;10.43;6.63;;;16.90;76.30;;;;;;5037028;28;20025;-81
2023/06/06 02:43:47;;;;;;;9.73;6.22;;;17.00;76.40;;;;;;5015926;28;20032;-82
2023/06/06 02:46:12;;;;;;;8.77;5.65;;;17.00;76.30;;;;;;5034439;28;20445;-82
2023/06/06 02:48:38;;;;;;;9.18;6.03;;;16.90;76.30;;;;;;5028786;28;20026;-81
2023/06/06 02:51:04;;;;;;;10.63;6.32;;;16.90;76.30;;;;;;5033321;28;20033;-82
2023/06/06 02:53:31;;;;;;;10.27;6.50;;;17.00;76.30;;;;;;5029729;28;20068;-82
2023/06/06 02:55:56;;;;;;;10.40;6.80;;;16.90;76.30;;;;;;5016033;28;20075;-82
2023/06/06 02:58:29;;;;;;;10.18;6.47;;;16.90;76.20;;;;;;5014698;28;20014;-82
2023/06/06 03:01:00;;;;;;;10.70;7.13;;;16.90;76.30;;;;;;5014986;28;20017;-82
2023/06/06 03:03:26;;;;;;;9.77;6.55;;;17.00;76.30;;;;;;5033983;28;20017;-81
2023/06/06 03:05:53;;;;;;;14.32;8.85;;;16.90;76.20;;;;;;5034677;28;20031;-82
2023/06/06 03:08:19;;;;;;;13.52;8.00;;;17.00;76.30;;;;;;5036235;28;20399;-82
2023/06/06 03:10:49;;;;;;;11.65;8.60;;;17.00;76.40;;;;;;5035586;28;20025;-82
2023/06/06 03:13:15;;;;;;;11.27;8.10;;;17.00;76.20;;;;;;5035051;28;20037;-82
2023/06/06 03:15:44;;;;;;;11.15;8.23;;;17.00;76.30;;;;;;5036459;28;20067;-82
2023/06/06 03:18:11;;;;;;;11.57;8.43;;;17.00;76.20;;;;;;5034087;28;20022;-82
2023/06/06 03:20:40;;;;;;;12.15;8.30;;;17.00;76.20;;;;;;5014468;28;20387;-82
2023/06/06 03:23:06;;;;;;;13.63;8.80;;;17.10;76.20;;;;;;5030036;28;20021;-82
2023/06/06 03:25:33;;;;;;;13.63;9.30;;;17.10;76.20;;;;;;5033891;28;20527;-82
2023/06/06 03:27:59;;;;;;;60.13;11.77;;;17.10;76.10;;;;;;5030881;28;20022;-86
2023/06/06 03:30:25;;;;;;;29.48;8.93;;;17.10;76.80;;;;;;5026711;28;20017;-81
2023/06/06 03:32:51;;;;;;;23.88;9.27;;;17.10;75.90;;;;;;5023327;28;20025;-81
2023/06/06 03:35:17;;;;;;;33.72;11.20;;;17.10;76.00;;;;;;5026371;28;20476;-82
2023/06/06 03:37:43;;;;;;;65.57;15.93;;;17.10;76.20;;;;;;5020398;28;20056;-82
2023/06/06 03:40:09;;;;;;;53.80;12.40;;;17.10;76.10;;;;;;5013006;28;20446;-82
2023/06/06 03:42:35;;;;;;;42.28;10.80;;;17.10;76.00;;;;;;5013111;28;20108;-82
2023/06/06 03:45:00;;;;;;;32.60;10.73;;;17.00;75.90;;;;;;5029623;28;20072;-82
2023/06/06 03:47:26;;;;;;;25.98;11.63;;;17.00;75.90;;;;;;5032113;28;20029;-82
2023/06/06 03:49:51;;;;;;;28.42;11.13;;;17.00;76.00;;;;;;5032277;28;20021;-82
2023/06/06 03:52:17;;;;;;;27.48;10.90;;;17.00;76.10;;;;;;5031896;28;20413;-81
2023/06/06 03:54:42;;;;;;;21.83;10.10;;;17.00;76.10;;;;;;5032576;28;20059;-81
2023/06/06 03:57:11;;;;;;;20.13;9.70;;;16.90;76.00;;;;;;5032799;28;20075;-82
2023/06/06 03:59:36;;;;;;;21.55;8.93;;;16.90;75.90;;;;;;5030196;28;20021;-84
2023/06/06 04:15:48;;;;;;;13.57;7.68;;;16.90;75.90;;;;;;4990729;28;20746;-83
2023/06/06 04:18:13;;;;;;;12.93;7.95;;;17.00;76.00;;;;;;4950492;28;20032;-81
2023/06/06 05:16:01;;;;;;;12.32;9.15;;;17.10;75.60;;;;;;4921392;28;20056;-84
2023/06/06 05:18:28;;;;;;;12.07;7.75;;;17.20;75.60;;;;;;4982223;28;20027;-85
2023/06/06 05:20:54;;;;;;;12.18;7.63;;;17.00;75.70;;;;;;4983478;28;20026;-85
2023/06/06 05:23:19;;;;;;;13.25;7.22;;;17.00;75.50;;;;;;4975687;28;20384;-85
2023/06/06 05:25:45;;;;;;;15.18;9.00;;;17.00;75.60;;;;;;5003357;28;20026;-85
2023/06/06 05:28:11;;;;;;;11.88;7.75;;;17.10;75.70;;;;;;5001991;28;20033;-85
2023/06/06 05:30:37;;;;;;;16.80;9.80;;;17.10;75.70;;;;;;4985879;28;20030;-84
2023/06/06 05:33:03;;;;;;;12.80;8.00;;;17.10;75.70;;;;;;4997888;28;20031;-84
2023/06/06 05:35:29;;;;;;;13.73;9.65;;;17.00;75.70;;;;;;4998087;28;20023;-84
2023/06/06 05:37:54;;;;;;;13.75;7.68;;;17.10;75.80;;;;;;4995697;28;20448;-85
2023/06/06 05:40:20;;;;;;;11.27;6.95;;;17.10;75.80;;;;;;4990484;28;20485;-84
2023/06/06 05:42:45;;;;;;;15.10;8.95;;;17.10;75.80;;;;;;4980828;28;20031;-84
2023/06/06 05:45:11;;;;;;;14.07;9.77;;;17.10;75.80;;;;;;4981545;28;20035;-84
2023/06/06 05:47:36;;;;;;;11.10;7.60;;;17.10;75.90;;;;;;4964395;28;20401;-85
2023/06/06 05:50:02;;;;;;;14.73;9.88;;;17.10;75.90;;;;;;4998964;28;20623;-84
2023/06/06 05:52:28;;;;;;;13.07;8.52;;;17.10;76.00;;;;;;4982123;28;20476;-85
2023/06/06 05:55:04;;;;;;;11.95;7.47;;;17.10;76.00;;;;;;4966958;28;20061;-84
2023/06/06 05:57:30;;;;;;;13.07;8.60;;;17.10;76.00;;;;;;4964053;28;20508;-84
2023/06/06 06:00:00;;;;;;;13.43;8.55;;;17.10;76.00;;;;;;4982595;28;20033;-84
2023/06/06 06:02:26;;;;;;;12.60;8.30;;;17.10;76.00;;;;;;4982566;28;20026;-84
2023/06/06 06:04:53;;;;;;;14.13;9.57;;;17.10;76.00;;;;;;4963053;28;20027;-84
2023/06/06 06:07:18;;;;;;;12.57;9.30;;;17.10;76.00;;;;;;4962826;28;20030;-84
2023/06/06 06:09:44;;;;;;;12.82;9.02;;;17.20;76.10;;;;;;4970333;28;20030;-84
2023/06/06 06:12:09;;;;;;;13.48;8.48;;;17.20;76.10;;;;;;4965194;28;20030;-84
2023/06/06 06:14:35;;;;;;;11.77;7.88;;;17.20;76.10;;;;;;4972437;28;20030;-84
2023/06/06 06:17:00;;;;;;;12.90;8.45;;;17.20;76.10;;;;;;4977243;28;20023;-86
2023/06/06 06:19:26;;;;;;;12.73;8.05;;;17.20;76.10;;;;;;4961431;28;20027;-84
2023/06/06 06:21:51;;;;;;;12.88;8.80;;;17.20;76.10;;;;;;4977260;28;20477;-84
2023/06/06 06:24:16;;;;;;;11.98;8.43;;;17.20;76.10;;;;;;4979083;28;20042;-84
2023/06/06 06:26:42;;;;;;;13.18;8.60;;;17.20;76.10;;;;;;4978676;28;20027;-84
2023/06/06 06:29:07;;;;;;;12.57;8.25;;;17.20;76.10;;;;;;4979802;28;20038;-84
2023/06/06 06:31:33;;;;;;;13.80;9.10;;;17.20;76.00;;;;;;4994784;28;20033;-84
2023/06/06 06:33:58;;;;;;;13.27;9.00;;;17.30;76.00;;;;;;4980372;28;20027;-83
2023/06/06 06:36:24;;;;;;;13.55;9.00;;;17.30;75.90;;;;;;4995538;28;20018;-84
2023/06/06 06:38:50;;;;;;;13.02;8.75;;;17.30;75.80;;;;;;4960196;28;20065;-84
2023/06/06 06:41:15;;;;;;;12.13;8.38;;;17.40;75.80;;;;;;4977552;28;20055;-84
2023/06/06 06:43:41;;;;;;;13.25;9.05;;;17.40;75.70;;;;;;4975868;28;20040;-84
2023/06/06 06:46:06;;;;;;;12.90;9.07;;;17.40;75.70;;;;;;4960094;28;20031;-84
2023/06/06 06:48:32;;;;;;;12.85;8.75;;;17.50;75.70;;;;;;4977402;28;20030;-85
2023/06/06 06:50:57;;;;;;;13.32;8.70;;;17.50;75.60;;;;;;4959282;28;20041;-84
2023/06/06 06:53:26;;;;;;;13.80;9.77;;;17.50;75.50;;;;;;4993259;28;20030;-85
2023/06/06 06:55:55;;;;;;;13.77;10.05;;;17.50;76.10;;;;;;4980118;28;20481;-84
2023/06/06 06:58:33;;;;;;;14.88;9.95;;;17.50;75.60;;;;;;4959013;28;20106;-84
2023/06/06 07:00:59;;;;;;;13.82;9.73;;;17.60;75.60;;;;;;4994460;28;20027;-84
2023/06/06 07:03:24;;;;;;;12.77;8.13;;;17.50;75.60;;;;;;4994269;28;20134;-84
2023/06/06 07:05:50;;;;;;;12.48;8.95;;;17.50;75.60;;;;;;4996339;28;20038;-84
2023/06/06 07:08:15;;;;;;;13.55;9.88;;;17.50;75.60;;;;;;4977006;28;20042;-84
2023/06/06 07:10:43;;;;;;;12.32;8.85;;;17.50;75.60;;;;;;4984470;28;20030;-84
2023/06/06 07:13:08;;;;;;;13.10;8.63;;;17.50;75.60;;;;;;4977544;28;20031;-84
2023/06/06 07:15:37;;;;;;;14.40;9.57;;;17.50;75.60;;;;;;4988122;28;20023;-84
2023/06/06 07:18:03;;;;;;;13.10;9.57;;;17.50;75.70;;;;;;4957885;28;20026;-84
2023/06/06 07:20:28;;;;;;;15.27;10.57;;;17.50;75.60;;;;;;4964107;28;20033;-84
2023/06/06 07:22:55;;;;;;;14.35;10.48;;;17.50;75.70;;;;;;4976932;28;20026;-84
2023/06/06 07:25:21;;;;;;;15.50;10.15;;;17.50;75.70;;;;;;4977481;28;20034;-84
2023/06/06 07:27:46;;;;;;;13.30;9.10;;;17.60;75.80;;;;;;4994516;28;20029;-84
2023/06/06 07:30:12;;;;;;;14.57;10.50;;;17.60;76.00;;;;;;4977333;28;20030;-84
2023/06/06 07:32:42;;;;;;;13.80;9.77;;;17.60;75.70;;;;;;4994825;28;20018;-84
2023/06/06 07:35:16;;;;;;;13.95;9.98;;;17.60;75.80;;;;;;4993036;28;20141;-84
2023/06/06 07:37:42;;;;;;;14.55;9.77;;;17.60;75.80;;;;;;4965004;28;20027;-84
2023/06/06 07:40:10;;;;;;;14.20;10.05;;;17.60;75.80;;;;;;4975020;28;20035;-84
2023/06/06 07:42:36;;;;;;;13.90;9.50;;;17.60;75.90;;;;;;4957721;28;20138;-84
2023/06/06 07:45:03;;;;;;;14.57;10.27;;;17.60;75.90;;;;;;4973626;28;20031;-85
2023/06/06 07:47:29;;;;;;;14.52;10.02;;;17.50;75.90;;;;;;4988669;28;20027;-84
2023/06/06 07:49:54;;;;;;;13.15;9.27;;;17.50;76.00;;;;;;4976385;28;20053;-84
2023/06/06 07:52:20;;;;;;;13.35;9.10;;;17.60;76.00;;;;;;4992342;28;20066;-84
2023/06/06 07:54:46;;;;;;;15.10;10.27;;;17.60;75.90;;;;;;4976357;28;20036;-84
2023/06/06 07:57:15;;;;;;;13.65;8.90;;;17.60;75.80;;;;;;4976155;28;20029;-84
2023/06/06 07:59:42;;;;;;;15.05;9.88;;;17.70;75.70;;;;;;4976333;28;20050;-84
2023/06/06 08:02:07;;;;;;;12.85;9.20;;;17.70;75.70;;;;;;4993464;28;20475;-84
2023/06/06 08:04:33;;;;;;;12.73;9.23;;;17.70;75.60;;;;;;4972895;28;20026;-84
2023/06/06 08:06:58;;;;;;;13.63;9.35;;;17.70;75.50;;;;;;4992187;28;20026;-85
2023/06/06 08:09:24;;;;;;;13.75;9.55;;;17.80;75.50;;;;;;4997727;28;20041;-85
2023/06/06 08:11:49;;;;;;;14.45;9.77;;;17.80;75.40;;;;;;4986349;28;20023;-85
2023/06/06 08:14:15;;;;;;;14.38;9.80;;;17.90;75.40;;;;;;4990619;28;20042;-85
2023/06/06 08:16:41;;;;;;;13.05;9.80;;;17.90;75.30;;;;;;4983532;28;20037;-84
2023/06/06 08:19:07;;;;;;;13.88;9.50;;;17.90;75.10;;;;;;4990211;28;20118;-85
2023/06/06 08:21:32;;;;;;;13.32;9.30;;;18.00;75.00;;;;;;4964451;28;20078;-85
2023/06/06 08:23:57;;;;;;;11.85;8.88;;;18.00;74.90;;;;;;4983591;28;20058;-85
2023/06/06 08:26:25;;;;;;;12.90;9.25;;;18.00;74.80;;;;;;4983298;28;20054;-84
2023/06/06 08:28:51;;;;;;;14.77;9.55;;;18.00;74.80;;;;;;4982125;28;20027;-84
2023/06/06 08:31:18;;;;;;;12.60;9.10;;;18.10;74.70;;;;;;4982628;28;20042;-85
2023/06/06 08:33:45;;;;;;;12.93;9.30;;;18.10;74.70;;;;;;4978340;28;20019;-85
2023/06/06 08:36:11;;;;;;;13.02;9.05;;;18.10;74.60;;;;;;4978364;28;20170;-84
2023/06/06 08:38:38;;;;;;;12.63;9.05;;;18.10;74.50;;;;;;4985094;28;20062;-85
2023/06/06 08:41:04;;;;;;;13.65;9.10;;;18.10;74.50;;;;;;4998187;28;20486;-85
2023/06/06 08:43:36;;;;;;;13.00;9.02;;;18.10;74.50;;;;;;4974809;28;20034;-85
2023/06/06 08:46:02;;;;;;;13.15;9.20;;;18.10;75.10;;;;;;4979427;28;20125;-85
2023/06/06 08:48:29;;;;;;;12.40;8.85;;;18.20;74.80;;;;;;4980777;28;20469;-85
2023/06/06 08:51:00;;;;;;;12.88;9.38;;;18.10;74.90;;;;;;4980784;28;20022;-84
2023/06/06 08:53:26;;;;;;;13.30;9.55;;;18.10;75.00;;;;;;4980101;28;20026;-85
2023/06/06 08:55:56;;;;;;;13.23;9.35;;;18.10;74.90;;;;;;4998110;28;20023;-85
2023/06/06 08:58:22;;;;;;;14.50;9.63;;;18.10;75.00;;;;;;4979730;28;20037;-85
2023/06/06 09:00:49;;;;;;;12.68;9.02;;;18.10;74.90;;;;;;4985618;28;20031;-86
2023/06/06 09:03:17;;;;;;;12.88;8.88;;;18.20;75.00;;;;;;4984947;28;20054;-86
2023/06/06 09:05:43;;;;;;;12.00;9.02;;;18.20;75.00;;;;;;5002763;28;20026;-86
2023/06/06 09:08:09;;;;;;;11.48;8.50;;;18.20;74.90;;;;;;4973901;28;20094;-85
2023/06/06 09:10:35;;;;;;;12.35;8.77;;;18.20;74.90;;;;;;4996537;28;20046;-85
2023/06/06 09:13:00;;;;;;;12.27;8.77;;;18.20;75.00;;;;;;4975588;28;20057;-85
2023/06/06 09:15:27;;;;;;;12.32;8.90;;;18.20;75.10;;;;;;4981240;28;20027;-85
2023/06/06 09:17:54;;;;;;;11.93;8.65;;;18.20;75.10;;;;;;4967255;28;20031;-85
2023/06/06 09:20:22;;;;;;;12.63;8.75;;;18.20;75.10;;;;;;4967680;28;20030;-85
2023/06/06 09:22:48;;;;;;;11.90;8.68;;;18.20;75.00;;;;;;4985713;28;20045;-85
2023/06/06 09:25:19;;;;;;;11.35;8.40;;;18.30;75.00;;;;;;4962853;28;20030;-85
2023/06/06 09:27:46;;;;;;;12.43;8.77;;;18.30;75.00;;;;;;4994454;28;20493;-85
2023/06/06 09:30:25;;;;;;;11.52;8.60;;;18.30;74.90;;;;;;4999361;28;20034;-84
2023/06/06 09:32:58;;;;;;;11.75;8.52;;;18.30;74.90;;;;;;4983020;28;20018;-85
2023/06/06 09:35:34;;;;;;;11.52;8.52;;;18.30;74.90;;;;;;4971229;28;20073;-85
2023/06/06 09:38:16;;;;;;;12.27;8.73;;;18.30;74.40;;;;;;4977141;28;20026;-84
2023/06/06 09:40:50;;;;;;;11.55;8.27;;;18.30;75.00;;;;;;5001327;28;20500;-84
2023/06/06 09:43:22;;;;;;;12.98;9.20;;;18.30;75.10;;;;;;5000702;28;20035;-85
2023/06/06 09:45:50;;;;;;;13.50;9.18;;;18.30;75.10;;;;;;4979510;28;20109;-85
2023/06/06 09:48:33;;;;;;;11.57;8.38;;;18.30;75.10;;;;;;4971339;28;20065;-85
2023/06/06 09:50:59;;;;;;;11.80;8.80;;;18.20;75.10;;;;;;4963204;28;20091;-84
2023/06/06 09:53:25;;;;;;;12.52;8.63;;;18.20;75.20;;;;;;4963388;28;20046;-84
2023/06/06 09:55:51;;;;;;;10.98;7.90;;;18.20;75.30;;;;;;4991757;28;20018;-84
2023/06/06 09:58:20;;;;;;;12.43;8.90;;;18.20;75.30;;;;;;4988167;28;20030;-84
2023/06/06 10:00:47;;;;;;;11.05;8.48;;;18.20;75.20;;;;;;4962538;28;20118;-84
2023/06/06 10:03:22;;;;;;;11.63;8.52;;;18.30;75.20;;;;;;4976643;28;20061;-85
2023/06/06 10:05:50;;;;;;;12.45;8.38;;;18.30;75.10;;;;;;4999418;28;20400;-84
2023/06/06 10:08:17;;;;;;;10.77;8.32;;;18.30;75.00;;;;;;4966177;28;20085;-84
2023/06/06 10:10:45;;;;;;;12.15;8.10;;;18.30;75.00;;;;;;4994351;28;20022;-85
2023/06/06 10:13:12;;;;;;;10.30;7.60;;;18.40;74.90;;;;;;4980225;28;20396;-84
2023/06/06 10:15:39;;;;;;;10.85;8.02;;;18.40;74.90;;;;;;4977220;28;20029;-84
2023/06/06 10:18:05;;;;;;;10.65;7.78;;;18.40;74.90;;;;;;4976546;28;20023;-84
2023/06/06 10:20:31;;;;;;;10.82;7.63;;;18.40;75.00;;;;;;4978847;28;20564;-84
2023/06/06 10:23:01;;;;;;;10.40;7.53;;;18.30;74.90;;;;;;4967794;28;20548;-85
2023/06/06 10:25:27;;;;;;;11.07;8.13;;;18.30;74.90;;;;;;4962196;28;20074;-85
2023/06/06 10:27:56;;;;;;;11.35;8.20;;;18.30;75.10;;;;;;4979536;28;20035;-84
2023/06/06 10:30:46;;;;;;;12.32;8.48;;;18.30;75.20;;;;;;4997279;28;20030;-84
2023/06/06 10:33:23;;;;;;;10.48;7.60;;;18.30;75.30;;;;;;4968458;28;20022;-84
2023/06/06 10:35:53;;;;;;;10.57;7.63;;;18.30;75.50;;;;;;4977627;28;20015;-84
2023/06/06 10:38:19;;;;;;;9.75;6.88;;;18.30;75.60;;;;;;4977527;28;20553;-84
2023/06/06 10:40:53;;;;;;;10.13;7.53;;;18.20;75.60;;;;;;4977165;28;20110;-84
2023/06/06 10:43:20;;;;;;;10.63;7.53;;;18.20;75.60;;;;;;4991783;28;20022;-84
2023/06/06 10:45:49;;;;;;;10.65;7.50;;;18.20;75.70;;;;;;4996360;28;20029;-84
2023/06/06 10:48:15;;;;;;;10.52;8.10;;;18.20;75.70;;;;;;4978190;28;20034;-84
2023/06/06 10:50:53;;;;;;;10.48;7.63;;;18.20;75.70;;;;;;4996460;28;20041;-84
2023/06/06 10:53:19;;;;;;;12.80;8.43;;;18.20;75.80;;;;;;4978192;28;20030;-84
2023/06/06 10:55:45;;;;;;;10.38;7.75;;;18.20;75.80;;;;;;4978377;28;20508;-84
2023/06/06 10:58:27;;;;;;;10.70;7.50;;;18.20;75.80;;;;;;4977681;28;20095;-84
2023/06/06 11:01:00;;;;;;;11.23;8.07;;;18.20;75.80;;;;;;4995858;28;20133;-85
2023/06/06 11:03:40;;;;;;;10.00;7.07;;;18.10;75.90;;;;;;4977543;28;20073;-84
2023/06/06 11:06:18;;;;;;;9.80;7.40;;;18.10;76.00;;;;;;4978102;28;20082;-84
2023/06/06 11:08:56;;;;;;;11.32;7.50;;;18.10;76.00;;;;;;4995190;28;20556;-84
2023/06/06 11:11:26;;;;;;;10.35;7.18;;;18.10;76.00;;;;;;4977174;28;20026;-85
2023/06/06 11:13:56;;;;;;;11.38;8.27;;;18.10;76.00;;;;;;4975473;28;20141;-84
2023/06/06 11:16:39;;;;;;;11.43;7.72;;;18.20;76.00;;;;;;4958108;28;20165;-84
2023/06/06 11:19:09;;;;;;;9.82;6.88;;;18.20;75.90;;;;;;4991978;28;20370;-84
2023/06/06 11:21:48;;;;;;;10.75;7.50;;;18.20;75.90;;;;;;4977112;28;20141;-84
2023/06/06 11:24:15;;;;;;;10.45;7.40;;;18.20;75.90;;;;;;4975753;28;20030;-84
2023/06/06 11:26:41;;;;;;;10.52;7.32;;;18.10;75.90;;;;;;4957605;28;20114;-84
2023/06/06 11:29:09;;;;;;;10.35;7.45;;;18.20;76.00;;;;;;4975036;28;20033;-84
2023/06/06 11:31:35;;;;;;;9.75;7.20;;;18.20;75.90;;;;;;4958964;28;20027;-84
2023/06/06 11:34:09;;;;;;;10.07;7.18;;;18.20;75.90;;;;;;4981015;28;20034;-84
2023/06/06 11:36:37;;;;;;;9.25;6.68;;;18.20;75.90;;;;;;4957125;28;20023;-84
2023/06/06 11:39:05;;;;;;;9.60;6.97;;;18.20;75.80;;;;;;4957375;28;20054;-84
2023/06/06 11:41:35;;;;;;;11.32;7.28;;;18.30;75.90;;;;;;4958492;28;20049;-84
2023/06/06 11:44:01;;;;;;;9.63;7.18;;;18.30;75.80;;;;;;4976807;28;20027;-84
2023/06/06 11:46:29;;;;;;;9.70;6.95;;;18.30;75.80;;;;;;4999384;28;20476;-85
2023/06/06 11:48:58;;;;;;;9.75;6.85;;;18.30;75.80;;;;;;4985969;28;20038;-84
2023/06/06 11:51:25;;;;;;;9.32;6.57;;;18.30;75.80;;;;;;4998851;28;20026;-85
2023/06/06 11:53:51;;;;;;;10.68;7.03;;;18.30;75.80;;;;;;4966833;28;20027;-85
2023/06/06 11:56:17;;;;;;;9.73;6.78;;;18.30;75.90;;;;;;4984880;28;20029;-85
2023/06/06 11:58:43;;;;;;;9.05;6.80;;;18.30;75.90;;;;;;5002731;28;20022;-85
2023/06/06 12:01:10;;;;;;;10.20;6.72;;;18.20;75.80;;;;;;4982105;28;20041;-84
2023/06/06 12:03:38;;;;;;;9.85;7.00;;;18.20;75.80;;;;;;5000031;28;20493;-85
2023/06/06 12:06:05;;;;;;;9.95;6.50;;;18.20;75.90;;;;;;4976845;28;20062;-85
2023/06/06 12:08:35;;;;;;;9.30;6.65;;;18.20;75.90;;;;;;4986870;28;20041;-85
2023/06/06 12:11:24;;;;;;;8.88;6.68;;;18.20;76.00;;;;;;4967069;28;20668;-84
2023/06/06 12:13:50;;;;;;;10.20;7.38;;;18.20;76.10;;;;;;4964705;28;20593;-85
2023/06/06 12:16:27;;;;;;;9.60;7.00;;;18.20;76.70;;;;;;4982406;28;20022;-85
2023/06/06 12:18:54;;;;;;;9.60;6.82;;;18.10;76.20;;;;;;4998828;28;20026;-85
2023/06/06 12:21:20;;;;;;;10.07;7.22;;;18.10;76.30;;;;;;4961806;28;20042;-85
2023/06/06 12:23:47;;;;;;;9.48;7.15;;;18.10;76.40;;;;;;4977885;28;20081;-85
2023/06/06 12:26:16;;;;;;;10.23;6.72;;;18.10;76.40;;;;;;4981116;28;20030;-84
2023/06/06 12:28:59;;;;;;;10.35;7.18;;;18.10;76.50;;;;;;4980674;28;20033;-84
2023/06/06 12:31:34;;;;;;;10.65;7.30;;;18.10;76.60;;;;;;4998062;28;20026;-85
2023/06/06 12:34:00;;;;;;;11.18;7.40;;;18.10;76.70;;;;;;4979600;28;20022;-85
2023/06/06 12:36:26;;;;;;;10.35;7.00;;;18.10;76.70;;;;;;4980941;28;20484;-85
2023/06/06 12:39:08;;;;;;;9.50;7.00;;;18.00;76.70;;;;;;5000097;28;20038;-86
2023/06/06 12:41:43;;;;;;;9.82;7.00;;;18.00;76.70;;;;;;4987130;28;20019;-86
2023/06/06 12:44:13;;;;;;;9.27;7.18;;;18.00;76.80;;;;;;4987133;28;20035;-86
2023/06/06 12:46:40;;;;;;;8.75;6.28;;;18.00;76.80;;;;;;4985097;28;20137;-86
2023/06/06 12:49:06;;;;;;;9.63;7.05;;;18.00;76.80;;;;;;4976551;28;20489;-86
2023/06/06 12:51:33;;;;;;;9.75;7.15;;;18.10;76.70;;;;;;4968479;28;20027;-86
2023/06/06 12:53:59;;;;;;;9.77;7.10;;;18.10;76.70;;;;;;4966580;28;20027;-86
2023/06/06 12:56:26;;;;;;;10.50;7.32;;;18.10;76.70;;;;;;4997271;28;20038;-85
2023/06/06 12:58:52;;;;;;;9.93;6.95;;;18.10;76.70;;;;;;4981472;28;20094;-85
2023/06/06 13:01:18;;;;;;;10.73;7.30;;;18.10;76.70;;;;;;4983018;28;20081;-85
2023/06/06 13:03:45;;;;;;;9.82;7.00;;;18.00;76.70;;;;;;4982034;28;20026;-85
2023/06/06 13:06:11;;;;;;;9.15;6.63;;;18.00;76.70;;;;;;4999572;28;20026;-83
2023/06/06 13:08:37;;;;;;;9.45;6.88;;;18.10;76.80;;;;;;4982024;28;20068;-84
2023/06/06 13:11:02;;;;;;;8.88;6.32;;;18.00;76.80;;;;;;4983536;28;20066;-84
2023/06/06 13:13:28;;;;;;;8.75;6.55;;;18.00;76.80;;;;;;4982771;28;20030;-84
2023/06/06 13:15:54;;;;;;;8.70;6.03;;;18.00;76.80;;;;;;5000358;28;20436;-85
2023/06/06 13:18:20;;;;;;;7.95;5.45;;;18.10;76.80;;;;;;4990811;28;20050;-84
2023/06/06 13:20:46;;;;;;;8.82;6.35;;;18.10;76.70;;;;;;4980403;28;20030;-86
2023/06/06 13:23:11;;;;;;;8.40;5.70;;;18.10;76.70;;;;;;4976802;28;20030;-84
2023/06/06 13:25:36;;;;;;;8.50;6.18;;;18.10;76.60;;;;;;5000644;28;20031;-84
2023/06/06 13:28:02;;;;;;;9.00;6.10;;;18.20;76.60;;;;;;4982042;28;20509;-84
2023/06/06 13:30:29;;;;;;;8.18;6.10;;;18.10;76.60;;;;;;4999948;28;20093;-84
2023/06/06 13:32:54;;;;;;;9.27;6.28;;;18.10;76.50;;;;;;4981942;28;20397;-84
2023/06/06 13:35:20;;;;;;;8.70;6.10;;;18.10;76.50;;;;;;4982537;28;20026;-86
2023/06/06 13:37:46;;;;;;;8.65;6.10;;;18.10;76.50;;;;;;4982699;28;20485;-85
2023/06/06 13:40:12;;;;;;;9.75;6.97;;;18.10;76.60;;;;;;4980936;28;20033;-85
2023/06/06 13:42:37;;;;;;;8.68;6.22;;;18.10;76.70;;;;;;4978815;28;20066;-86
2023/06/06 13:45:03;;;;;;;8.55;6.03;;;18.10;76.80;;;;;;4984353;28;20054;-85
2023/06/06 13:47:29;;;;;;;8.50;6.10;;;18.10;76.90;;;;;;4973682;28;20035;-85
2023/06/06 13:49:57;;;;;;;8.25;5.78;;;18.00;76.90;;;;;;4981631;28;20042;-85
2023/06/06 13:52:23;;;;;;;8.00;5.50;;;18.00;77.00;;;;;;4976185;28;20058;-84